sensor_id;sensor_type;location;lat;lon;timestamp;pressure;altitude;pressure_sealevel;temperature;humidity
12722;BME280;6425;50.316;8.114;2023-04-02T00:00:09;981;;;11.3;78.4
12722;BME280;6425;50.316;8.114;2023-04-02T00:03:00;981;;;11.4;78.2
12722;BME280;6425;50.316;8.114;2023-04-02T00:06:00;981;;;11.5;78
12722;BME280;6425;50.316;8.114;2023-04-02T00:09:00;981;;;11.3;78.1
12722;BME280;6425;50.316;8.114;2023-04-02T00:12:10;981;;;11.2;77.9
12722;BME280;6425;50.316;8.114;2023-04-02T00:15:00;981;;;11.4;78.9
12722;BME280;6425;50.316;8.114;2023-04-02T00:18:00;981;;;11.4;77.5
12722;BME280;6425;50.316;8.114;2023-04-02T00:21:04;981;;;11.3;78
12722;BME280;6425;50.316;8.114;2023-04-02T00:24:00;981;;;10.4;81.7
12722;BME280;6425;50.316;8.114;2023-04-02T00:27:00;981;;;10.1;84.2
12722;BME280;6425;50.316;8.114;2023-04-02T00:30:00;981;;;9.9;85.2
12722;BME280;6425;50.316;8.114;2023-04-02T00:33:00;981;;;9.8;86.3
12722;BME280;6425;50.316;8.114;2023-04-02T00:36:00;981;;;10.1;85.9
12722;BME280;6425;50.316;8.114;2023-04-02T00:39:00;981;;;10.1;84.9
12722;BME280;6425;50.316;8.114;2023-04-02T00:42:00;981;;;9.9;85.7
12722;BME280;6425;50.316;8.114;2023-04-02T00:45:00;981;;;10.4;85
12722;BME280;6425;50.316;8.114;2023-04-02T00:48:12;981;;;10.7;83.2
12722;BME280;6425;50.316;8.114;2023-04-02T00:51:00;981;;;10.9;81.8
12722;BME280;6425;50.316;8.114;2023-04-02T00:54:00;981;;;11.1;80.4
12722;BME280;6425;50.316;8.114;2023-04-02T00:57:00;981;;;10.9;80.4
12722;BME280;6425;50.316;8.114;2023-04-02T01:00:00;981;;;11;80.1
12722;BME280;6425;50.316;8.114;2023-04-02T01:03:32;981;;;10.4;81.1
12722;BME280;6425;50.316;8.114;2023-04-02T01:06:00;981;;;10.6;82.2
12722;BME280;6425;50.316;8.114;2023-04-02T01:09:02;981;;;10.7;81.3
12722;BME280;6425;50.316;8.114;2023-04-02T01:12:05;982;;;10.8;80.6
12722;BME280;6425;50.316;8.114;2023-04-02T01:15:02;981;;;10.3;82.1
12722;BME280;6425;50.316;8.114;2023-04-02T01:18:02;982;;;9.6;86.1
12722;BME280;6425;50.316;8.114;2023-04-02T01:21:04;982;;;9.2;88
12722;BME280;6425;50.316;8.114;2023-04-02T01:24:01;982;;;8.9;89.4
12722;BME280;6425;50.316;8.114;2023-04-02T01:27:00;982;;;8.5;92.5
12722;BME280;6425;50.316;8.114;2023-04-02T01:30:00;982;;;8.6;94.5
12722;BME280;6425;50.316;8.114;2023-04-02T01:33:00;982;;;9.3;92.9
12722;BME280;6425;50.316;8.114;2023-04-02T01:36:01;982;;;10.3;89
12722;BME280;6425;50.316;8.114;2023-04-02T01:39:02;982;;;10.7;85.2
12722;BME280;6425;50.316;8.114;2023-04-02T01:42:01;982;;;11.1;82.3
12722;BME280;6425;50.316;8.114;2023-04-02T01:45:00;982;;;11.4;80.3
12722;BME280;6425;50.316;8.114;2023-04-02T01:48:00;982;;;11.4;79.1
12722;BME280;6425;50.316;8.114;2023-04-02T01:51:00;982;;;11.5;78
12722;BME280;6425;50.316;8.114;2023-04-02T01:54:01;982;;;11.6;78.2
12722;BME280;6425;50.316;8.114;2023-04-02T01:57:00;982;;;11.4;78.1
12722;BME280;6425;50.316;8.114;2023-04-02T02:00:00;982;;;11.6;78.1
12722;BME280;6425;50.316;8.114;2023-04-02T02:03:00;982;;;11.8;77.5
12722;BME280;6425;50.316;8.114;2023-04-02T02:06:00;982;;;11.6;77.7
12722;BME280;6425;50.316;8.114;2023-04-02T02:09:00;982;;;11.4;78.1
12722;BME280;6425;50.316;8.114;2023-04-02T02:12:00;982;;;11.2;79
12722;BME280;6425;50.316;8.114;2023-04-02T02:15:00;982;;;10.9;80
12722;BME280;6425;50.316;8.114;2023-04-02T02:18:01;982;;;10.7;81.2
12722;BME280;6425;50.316;8.114;2023-04-02T02:21:00;982;;;10.4;82.5
12722;BME280;6425;50.316;8.114;2023-04-02T02:24:00;982;;;10.4;83.4
12722;BME280;6425;50.316;8.114;2023-04-02T02:27:03;982;;;10.6;83.2
12722;BME280;6425;50.316;8.114;2023-04-02T02:30:01;982;;;10.6;82.7
12722;BME280;6425;50.316;8.114;2023-04-02T02:33:01;982;;;10.7;82.2
12722;BME280;6425;50.316;8.114;2023-04-02T02:36:00;982;;;10.8;81.7
12722;BME280;6425;50.316;8.114;2023-04-02T02:39:00;982;;;10.8;81.4
12722;BME280;6425;50.316;8.114;2023-04-02T02:42:01;982;;;10.9;81.5
12722;BME280;6425;50.316;8.114;2023-04-02T02:45:00;982;;;11;81.5
12722;BME280;6425;50.316;8.114;2023-04-02T02:48:00;982;;;11.1;80.6
12722;BME280;6425;50.316;8.114;2023-04-02T02:51:00;982;;;11.1;80
12722;BME280;6425;50.316;8.114;2023-04-02T02:54:00;983;;;11;79.7
12722;BME280;6425;50.316;8.114;2023-04-02T02:57:00;983;;;11.2;79.6
12722;BME280;6425;50.316;8.114;2023-04-02T03:00:00;983;;;11.2;79.5
12722;BME280;6425;50.316;8.114;2023-04-02T03:03:00;983;;;11.3;79.3
12722;BME280;6425;50.316;8.114;2023-04-02T03:06:01;983;;;11.3;79.2
12722;BME280;6425;50.316;8.114;2023-04-02T03:09:01;983;;;11.4;78.8
12722;BME280;6425;50.316;8.114;2023-04-02T03:12:01;983;;;11.4;78.9
12722;BME280;6425;50.316;8.114;2023-04-02T03:15:01;983;;;11.3;79.1
12722;BME280;6425;50.316;8.114;2023-04-02T03:18:01;983;;;11.3;79.1
12722;BME280;6425;50.316;8.114;2023-04-02T03:21:01;983;;;11.3;79.4
12722;BME280;6425;50.316;8.114;2023-04-02T03:24:00;983;;;11.3;79.2
12722;BME280;6425;50.316;8.114;2023-04-02T03:27:00;983;;;11.1;79.9
12722;BME280;6425;50.316;8.114;2023-04-02T03:30:03;983;;;11.1;80
12722;BME280;6425;50.316;8.114;2023-04-02T03:33:00;983;;;11;80
12722;BME280;6425;50.316;8.114;2023-04-02T03:36:01;983;;;10.9;80.7
12722;BME280;6425;50.316;8.114;2023-04-02T03:39:01;983;;;11;80.9
12722;BME280;6425;50.316;8.114;2023-04-02T03:42:01;983;;;11.2;80.2
12722;BME280;6425;50.316;8.114;2023-04-02T03:45:01;983;;;11.2;79.4
12722;BME280;6425;50.316;8.114;2023-04-02T03:48:01;983;;;10.9;80.1
12722;BME280;6425;50.316;8.114;2023-04-02T03:51:01;983;;;10.5;81.8
12722;BME280;6425;50.316;8.114;2023-04-02T03:54:00;983;;;10.6;82.8
12722;BME280;6425;50.316;8.114;2023-04-02T03:57:00;983;;;10.6;82.7
12722;BME280;6425;50.316;8.114;2023-04-02T04:00:00;984;;;10.6;82.8
12722;BME280;6425;50.316;8.114;2023-04-02T04:03:02;984;;;10.7;82.7
12722;BME280;6425;50.316;8.114;2023-04-02T04:06:00;984;;;10.7;82.8
12722;BME280;6425;50.316;8.114;2023-04-02T04:09:04;984;;;10.8;82.5
12722;BME280;6425;50.316;8.114;2023-04-02T04:12:04;984;;;10.9;82.3
12722;BME280;6425;50.316;8.114;2023-04-02T04:15:01;984;;;11;81.8
12722;BME280;6425;50.316;8.114;2023-04-02T04:18:01;984;;;11.1;81
12722;BME280;6425;50.316;8.114;2023-04-02T04:21:00;984;;;11.1;80.5
12722;BME280;6425;50.316;8.114;2023-04-02T04:24:00;984;;;11.2;80.4
12722;BME280;6425;50.316;8.114;2023-04-02T04:27:01;984;;;11.3;80.3
12722;BME280;6425;50.316;8.114;2023-04-02T04:30:00;984;;;11.3;80.1
12722;BME280;6425;50.316;8.114;2023-04-02T04:33:00;984;;;11.5;80
12722;BME280;6425;50.316;8.114;2023-04-02T04:36:00;984;;;11.4;79.9
12722;BME280;6425;50.316;8.114;2023-04-02T04:39:03;984;;;11.4;79.6
12722;BME280;6425;50.316;8.114;2023-04-02T04:42:00;984;;;11.4;79.3
12722;BME280;6425;50.316;8.114;2023-04-02T04:45:02;984;;;10.8;81.1
12722;BME280;6425;50.316;8.114;2023-04-02T04:48:00;984;;;10.9;82.1
12722;BME280;6425;50.316;8.114;2023-04-02T04:51:00;984;;;10.7;83
12722;BME280;6425;50.316;8.114;2023-04-02T04:54:00;984;;;10.7;83.1
12722;BME280;6425;50.316;8.114;2023-04-02T04:57:00;985;;;10.9;82.8
12722;BME280;6425;50.316;8.114;2023-04-02T05:00:02;985;;;10.8;82.9
12722;BME280;6425;50.316;8.114;2023-04-02T05:03:01;985;;;10.8;83.3
12722;BME280;6425;50.316;8.114;2023-04-02T05:06:02;985;;;10.5;84.3
12722;BME280;6425;50.316;8.114;2023-04-02T05:09:00;985;;;10.1;86.2
12722;BME280;6425;50.316;8.114;2023-04-02T05:12:02;985;;;8.9;90.5
12722;BME280;6425;50.316;8.114;2023-04-02T05:15:00;985;;;8.2;94.6
12722;BME280;6425;50.316;8.114;2023-04-02T05:18:05;985;;;8.2;96.5
12722;BME280;6425;50.316;8.114;2023-04-02T05:21:02;985;;;7.9;97.8
12722;BME280;6425;50.316;8.114;2023-04-02T05:24:12;985;;;7.7;98.7
12722;BME280;6425;50.316;8.114;2023-04-02T05:27:00;985;;;7.4;100
12722;BME280;6425;50.316;8.114;2023-04-02T05:30:02;985;;;7.3;100
12722;BME280;6425;50.316;8.114;2023-04-02T05:33:01;985;;;7.2;100
12722;BME280;6425;50.316;8.114;2023-04-02T05:36:00;985;;;7.2;100
12722;BME280;6425;50.316;8.114;2023-04-02T05:39:00;985;;;7.4;100
12722;BME280;6425;50.316;8.114;2023-04-02T05:42:00;985;;;7.3;100
12722;BME280;6425;50.316;8.114;2023-04-02T05:45:02;985;;;7.5;100
12722;BME280;6425;50.316;8.114;2023-04-02T05:48:00;986;;;7.3;100
12722;BME280;6425;50.316;8.114;2023-04-02T05:51:00;986;;;7;100
12722;BME280;6425;50.316;8.114;2023-04-02T05:54:00;986;;;7.1;100
12722;BME280;6425;50.316;8.114;2023-04-02T05:57:01;986;;;7.1;100
12722;BME280;6425;50.316;8.114;2023-04-02T06:00:03;986;;;7.1;100
12722;BME280;6425;50.316;8.114;2023-04-02T06:03:01;986;;;7.2;100
12722;BME280;6425;50.316;8.114;2023-04-02T06:06:00;986;;;7.2;100
12722;BME280;6425;50.316;8.114;2023-04-02T06:09:00;986;;;7.1;100
12722;BME280;6425;50.316;8.114;2023-04-02T06:12:01;986;;;7.1;100
12722;BME280;6425;50.316;8.114;2023-04-02T06:15:00;986;;;7.1;100
12722;BME280;6425;50.316;8.114;2023-04-02T06:18:03;986;;;7.2;99.7
12722;BME280;6425;50.316;8.114;2023-04-02T06:21:00;986;;;7;99.2
12722;BME280;6425;50.316;8.114;2023-04-02T06:24:00;986;;;6.8;99.3
12722;BME280;6425;50.316;8.114;2023-04-02T06:27:01;986;;;6.8;99.6
12722;BME280;6425;50.316;8.114;2023-04-02T06:30:02;986;;;7;99.1
12722;BME280;6425;50.316;8.114;2023-04-02T06:33:00;986;;;7.1;98.3
12722;BME280;6425;50.316;8.114;2023-04-02T06:36:00;987;;;6.8;98.2
12722;BME280;6425;50.316;8.114;2023-04-02T06:39:02;987;;;6.8;98.3
12722;BME280;6425;50.316;8.114;2023-04-02T06:42:00;987;;;6.8;98.2
12722;BME280;6425;50.316;8.114;2023-04-02T06:45:00;987;;;6.6;98.4
12722;BME280;6425;50.316;8.114;2023-04-02T06:48:00;987;;;6.5;98.6
12722;BME280;6425;50.316;8.114;2023-04-02T06:51:01;987;;;6.4;99.1
12722;BME280;6425;50.316;8.114;2023-04-02T06:54:00;987;;;6.4;99.5
12722;BME280;6425;50.316;8.114;2023-04-02T06:57:00;987;;;6.4;99.8
12722;BME280;6425;50.316;8.114;2023-04-02T07:00:00;987;;;6.5;99.7
12722;BME280;6425;50.316;8.114;2023-04-02T07:03:00;987;;;6.3;98.8
12722;BME280;6425;50.316;8.114;2023-04-02T07:06:00;987;;;6.3;98.7
12722;BME280;6425;50.316;8.114;2023-04-02T07:09:00;987;;;6.6;98.6
12722;BME280;6425;50.316;8.114;2023-04-02T07:12:00;987;;;6.8;98
12722;BME280;6425;50.316;8.114;2023-04-02T07:15:00;987;;;6.7;96.8
12722;BME280;6425;50.316;8.114;2023-04-02T07:18:00;987;;;6.6;96.8
12722;BME280;6425;50.316;8.114;2023-04-02T07:21:00;988;;;6.4;96.3
12722;BME280;6425;50.316;8.114;2023-04-02T07:24:00;988;;;6.3;96.7
12722;BME280;6425;50.316;8.114;2023-04-02T07:27:00;988;;;6.3;96.9
12722;BME280;6425;50.316;8.114;2023-04-02T07:30:00;988;;;6.3;96.9
12722;BME280;6425;50.316;8.114;2023-04-02T07:33:00;988;;;6.5;96.8
12722;BME280;6425;50.316;8.114;2023-04-02T07:36:00;988;;;6.3;96.9
12722;BME280;6425;50.316;8.114;2023-04-02T07:39:00;988;;;6.3;97.5
12722;BME280;6425;50.316;8.114;2023-04-02T07:42:00;988;;;6.2;97.6
12722;BME280;6425;50.316;8.114;2023-04-02T07:45:00;988;;;6.1;97
12722;BME280;6425;50.316;8.114;2023-04-02T07:48:02;988;;;6;97.7
12722;BME280;6425;50.316;8.114;2023-04-02T07:51:00;988;;;6.2;97.7
12722;BME280;6425;50.316;8.114;2023-04-02T07:54:00;988;;;6.3;96.7
12722;BME280;6425;50.316;8.114;2023-04-02T07:57:00;988;;;6.5;95
12722;BME280;6425;50.316;8.114;2023-04-02T08:00:00;988;;;6.3;94.3
12722;BME280;6425;50.316;8.114;2023-04-02T08:03:00;988;;;6.3;94.5
12722;BME280;6425;50.316;8.114;2023-04-02T08:06:00;989;;;6.2;95.1
12722;BME280;6425;50.316;8.114;2023-04-02T08:09:00;989;;;6.1;95.6
12722;BME280;6425;50.316;8.114;2023-04-02T08:12:00;989;;;6.1;96.4
12722;BME280;6425;50.316;8.114;2023-04-02T08:15:00;989;;;6;95.7
12722;BME280;6425;50.316;8.114;2023-04-02T08:18:00;989;;;6;95.5
12722;BME280;6425;50.316;8.114;2023-04-02T08:21:00;989;;;5.9;94.3
12722;BME280;6425;50.316;8.114;2023-04-02T08:24:00;989;;;5.8;93.7
12722;BME280;6425;50.316;8.114;2023-04-02T08:27:00;989;;;5.5;93.9
12722;BME280;6425;50.316;8.114;2023-04-02T08:30:00;989;;;5.5;95
12722;BME280;6425;50.316;8.114;2023-04-02T08:33:00;989;;;5.7;96.1
12722;BME280;6425;50.316;8.114;2023-04-02T08:36:00;989;;;5.7;96.1
12722;BME280;6425;50.316;8.114;2023-04-02T08:39:00;989;;;5.8;95.6
12722;BME280;6425;50.316;8.114;2023-04-02T08:42:02;989;;;5.9;96.2
12722;BME280;6425;50.316;8.114;2023-04-02T08:45:02;990;;;5.9;95.7
12722;BME280;6425;50.316;8.114;2023-04-02T08:48:00;990;;;5.7;95.6
12722;BME280;6425;50.316;8.114;2023-04-02T08:51:00;990;;;5.7;96
12722;BME280;6425;50.316;8.114;2023-04-02T08:54:00;990;;;5.7;96.2
12722;BME280;6425;50.316;8.114;2023-04-02T08:57:00;990;;;5.7;96
12722;BME280;6425;50.316;8.114;2023-04-02T09:00:00;990;;;5.6;95.8
12722;BME280;6425;50.316;8.114;2023-04-02T09:03:01;990;;;5.6;95.2
12722;BME280;6425;50.316;8.114;2023-04-02T09:06:00;990;;;5.5;95.5
12722;BME280;6425;50.316;8.114;2023-04-02T09:09:00;990;;;5.3;95.2
12722;BME280;6425;50.316;8.114;2023-04-02T09:12:00;990;;;5.3;95.4
12722;BME280;6425;50.316;8.114;2023-04-02T09:15:04;990;;;5.6;95.2
12722;BME280;6425;50.316;8.114;2023-04-02T09:18:05;990;;;5.5;94.9
12722;BME280;6425;50.316;8.114;2023-04-02T09:21:00;990;;;5.4;94.1
12722;BME280;6425;50.316;8.114;2023-04-02T09:24:00;990;;;5.4;95.1
12722;BME280;6425;50.316;8.114;2023-04-02T09:27:00;990;;;5.4;94.9
12722;BME280;6425;50.316;8.114;2023-04-02T09:30:01;990;;;5.3;94.3
12722;BME280;6425;50.316;8.114;2023-04-02T09:33:00;991;;;5.4;94.3
12722;BME280;6425;50.316;8.114;2023-04-02T09:36:00;991;;;5.6;94.1
12722;BME280;6425;50.316;8.114;2023-04-02T09:39:01;991;;;5.8;93.3
12722;BME280;6425;50.316;8.114;2023-04-02T09:42:01;991;;;5.6;92.1
12722;BME280;6425;50.316;8.114;2023-04-02T09:45:18;991;;;6.1;92.8
12722;BME280;6425;50.316;8.114;2023-04-02T09:48:00;991;;;5.6;92.8
12722;BME280;6425;50.316;8.114;2023-04-02T09:51:16;991;;;5.5;93.5
12722;BME280;6425;50.316;8.114;2023-04-02T09:54:05;991;;;5.4;93.7
12722;BME280;6425;50.316;8.114;2023-04-02T09:57:00;991;;;5.4;93.8
12722;BME280;6425;50.316;8.114;2023-04-02T10:00:08;991;;;5.5;94.6
12722;BME280;6425;50.316;8.114;2023-04-02T10:03:01;991;;;5.7;94.2
12722;BME280;6425;50.316;8.114;2023-04-02T10:06:08;991;;;5.8;93
12722;BME280;6425;50.316;8.114;2023-04-02T10:09:17;991;;;5.7;93.3
12722;BME280;6425;50.316;8.114;2023-04-02T10:12:00;991;;;6.2;93
12722;BME280;6425;50.316;8.114;2023-04-02T10:15:00;991;;;6;90.5
12722;BME280;6425;50.316;8.114;2023-04-02T10:18:02;991;;;5.7;90.4
12722;BME280;6425;50.316;8.114;2023-04-02T10:21:00;991;;;5.6;90.3
12722;BME280;6425;50.316;8.114;2023-04-02T10:24:00;991;;;5.5;90.3
12722;BME280;6425;50.316;8.114;2023-04-02T10:27:02;992;;;5.8;89.9
12722;BME280;6425;50.316;8.114;2023-04-02T10:30:02;991;;;5.8;89.2
12722;BME280;6425;50.316;8.114;2023-04-02T10:33:02;992;;;5.9;88.8
12722;BME280;6425;50.316;8.114;2023-04-02T10:36:01;992;;;5.9;88.2
12722;BME280;6425;50.316;8.114;2023-04-02T10:39:00;992;;;5.9;87.8
12722;BME280;6425;50.316;8.114;2023-04-02T10:42:01;992;;;5.5;88.1
12722;BME280;6425;50.316;8.114;2023-04-02T10:45:00;992;;;5.4;88.8
12722;BME280;6425;50.316;8.114;2023-04-02T10:48:02;992;;;5.4;88.6
12722;BME280;6425;50.316;8.114;2023-04-02T10:51:00;992;;;5.3;88.8
12722;BME280;6425;50.316;8.114;2023-04-02T10:54:01;992;;;5.3;88.7
12722;BME280;6425;50.316;8.114;2023-04-02T10:57:03;992;;;5.3;88.4
12722;BME280;6425;50.316;8.114;2023-04-02T11:00:02;992;;;5.4;88.5
12722;BME280;6425;50.316;8.114;2023-04-02T11:03:01;992;;;5.3;87.6
12722;BME280;6425;50.316;8.114;2023-04-02T11:06:01;992;;;5.4;88.4
12722;BME280;6425;50.316;8.114;2023-04-02T11:09:01;992;;;5.4;87.9
12722;BME280;6425;50.316;8.114;2023-04-02T11:12:00;992;;;5.5;86.6
12722;BME280;6425;50.316;8.114;2023-04-02T11:15:00;992;;;5.1;86.9
12722;BME280;6425;50.316;8.114;2023-04-02T11:18:00;992;;;5.1;88.3
12722;BME280;6425;50.316;8.114;2023-04-02T11:21:01;992;;;5.3;88
12722;BME280;6425;50.316;8.114;2023-04-02T11:24:00;992;;;5.6;86.8
12722;BME280;6425;50.316;8.114;2023-04-02T11:27:04;992;;;5.6;85.9
12722;BME280;6425;50.316;8.114;2023-04-02T11:30:02;992;;;5.4;86.9
12722;BME280;6425;50.316;8.114;2023-04-02T11:33:05;993;;;5.6;86.5
12722;BME280;6425;50.316;8.114;2023-04-02T11:36:00;993;;;5.6;86
12722;BME280;6425;50.316;8.114;2023-04-02T11:39:00;993;;;5.6;85.7
12722;BME280;6425;50.316;8.114;2023-04-02T11:42:01;993;;;5.8;85.4
12722;BME280;6425;50.316;8.114;2023-04-02T11:45:01;993;;;5.5;84.1
12722;BME280;6425;50.316;8.114;2023-04-02T11:48:29;993;;;5.5;84.8
12722;BME280;6425;50.316;8.114;2023-04-02T11:51:00;993;;;5.4;84.9
12722;BME280;6425;50.316;8.114;2023-04-02T11:54:00;993;;;5.3;85.5
12722;BME280;6425;50.316;8.114;2023-04-02T11:57:00;993;;;5.4;86
12722;BME280;6425;50.316;8.114;2023-04-02T12:00:02;993;;;5.3;85.5
12722;BME280;6425;50.316;8.114;2023-04-02T12:03:03;993;;;5.2;85.8
12722;BME280;6425;50.316;8.114;2023-04-02T12:06:00;993;;;5.3;86.3
12722;BME280;6425;50.316;8.114;2023-04-02T12:09:02;993;;;5.4;85.7
12722;BME280;6425;50.316;8.114;2023-04-02T12:12:01;993;;;5.3;85
12722;BME280;6425;50.316;8.114;2023-04-02T12:15:00;993;;;5.2;85.8
12722;BME280;6425;50.316;8.114;2023-04-02T12:18:02;993;;;5.3;86.1
12722;BME280;6425;50.316;8.114;2023-04-02T12:21:00;993;;;5.1;85.3
12722;BME280;6425;50.316;8.114;2023-04-02T12:24:00;993;;;5.3;85.5
12722;BME280;6425;50.316;8.114;2023-04-02T12:27:07;993;;;5.3;85.2
12722;BME280;6425;50.316;8.114;2023-04-02T12:30:11;993;;;5.1;85.5
12722;BME280;6425;50.316;8.114;2023-04-02T12:33:12;993;;;5.3;86.6
12722;BME280;6425;50.316;8.114;2023-04-02T12:36:00;993;;;5.3;86
12722;BME280;6425;50.316;8.114;2023-04-02T12:39:00;994;;;5.4;84.2
12722;BME280;6425;50.316;8.114;2023-04-02T12:42:00;994;;;5.5;83.8
12722;BME280;6425;50.316;8.114;2023-04-02T12:45:00;993;;;5.6;83.5
12722;BME280;6425;50.316;8.114;2023-04-02T12:48:00;994;;;5.3;83.8
12722;BME280;6425;50.316;8.114;2023-04-02T12:51:00;994;;;5.1;84.8
12722;BME280;6425;50.316;8.114;2023-04-02T12:54:00;994;;;5.3;85.3
12722;BME280;6425;50.316;8.114;2023-04-02T12:57:18;994;;;5.4;84.6
12722;BME280;6425;50.316;8.114;2023-04-02T13:00:00;994;;;5.7;83.2
12722;BME280;6425;50.316;8.114;2023-04-02T13:03:06;994;;;5.8;82.3
12722;BME280;6425;50.316;8.114;2023-04-02T13:06:00;994;;;5.7;82.6
12722;BME280;6425;50.316;8.114;2023-04-02T13:09:00;994;;;5.9;81.8
12722;BME280;6425;50.316;8.114;2023-04-02T13:12:00;994;;;6.1;81.3
12722;BME280;6425;50.316;8.114;2023-04-02T13:15:00;994;;;5.9;80.7
12722;BME280;6425;50.316;8.114;2023-04-02T13:18:01;994;;;5.7;79.9
12722;BME280;6425;50.316;8.114;2023-04-02T13:21:00;994;;;5.7;81.7
12722;BME280;6425;50.316;8.114;2023-04-02T13:24:00;994;;;5.7;81.4
12722;BME280;6425;50.316;8.114;2023-04-02T13:27:00;994;;;5.7;81.8
12722;BME280;6425;50.316;8.114;2023-04-02T13:30:05;994;;;5.7;82.2
12722;BME280;6425;50.316;8.114;2023-04-02T13:33:00;994;;;5.6;81.5
12722;BME280;6425;50.316;8.114;2023-04-02T13:36:00;994;;;5.6;81.2
12722;BME280;6425;50.316;8.114;2023-04-02T13:39:00;994;;;5.6;81.6
12722;BME280;6425;50.316;8.114;2023-04-02T13:42:00;994;;;5.6;81.1
12722;BME280;6425;50.316;8.114;2023-04-02T13:45:00;994;;;5.7;81.4
12722;BME280;6425;50.316;8.114;2023-04-02T13:48:00;994;;;5.6;80.7
12722;BME280;6425;50.316;8.114;2023-04-02T13:51:00;994;;;5.9;81
12722;BME280;6425;50.316;8.114;2023-04-02T13:54:00;994;;;5.8;80.4
12722;BME280;6425;50.316;8.114;2023-04-02T13:57:00;994;;;5.6;81.8
12722;BME280;6425;50.316;8.114;2023-04-02T14:00:00;995;;;5.2;82.3
12722;BME280;6425;50.316;8.114;2023-04-02T14:03:02;995;;;5.1;84.1
12722;BME280;6425;50.316;8.114;2023-04-02T14:06:01;995;;;5.2;83.6
12722;BME280;6425;50.316;8.114;2023-04-02T14:09:01;995;;;5.5;82.9
12722;BME280;6425;50.316;8.114;2023-04-02T14:12:02;995;;;5.5;81.9
12722;BME280;6425;50.316;8.114;2023-04-02T14:15:04;995;;;5.3;82.2
12722;BME280;6425;50.316;8.114;2023-04-02T14:18:05;995;;;5.1;82.1
12722;BME280;6425;50.316;8.114;2023-04-02T14:21:02;995;;;5.3;81.5
12722;BME280;6425;50.316;8.114;2023-04-02T14:24:04;995;;;5.5;80.9
12722;BME280;6425;50.316;8.114;2023-04-02T14:27:03;995;;;5.5;79.7
12722;BME280;6425;50.316;8.114;2023-04-02T14:30:00;995;;;5.3;79.8
12722;BME280;6425;50.316;8.114;2023-04-02T14:33:00;995;;;5.5;80.3
12722;BME280;6425;50.316;8.114;2023-04-02T14:36:03;995;;;5.5;80.9
12722;BME280;6425;50.316;8.114;2023-04-02T14:39:02;995;;;5.1;80.4
12722;BME280;6425;50.316;8.114;2023-04-02T14:51:00;995;;;4.8;80.7
12722;BME280;6425;50.316;8.114;2023-04-02T14:54:01;995;;;4.7;80.2
12722;BME280;6425;50.316;8.114;2023-04-02T14:57:03;995;;;4.7;80.3
12722;BME280;6425;50.316;8.114;2023-04-02T15:00:03;995;;;4.7;80.3
12722;BME280;6425;50.316;8.114;2023-04-02T15:03:02;995;;;4.9;79.4
12722;BME280;6425;50.316;8.114;2023-04-02T15:06:01;995;;;4.9;79.8
12722;BME280;6425;50.316;8.114;2023-04-02T15:09:01;995;;;5;79.6
12722;BME280;6425;50.316;8.114;2023-04-02T15:12:00;995;;;4.8;79
12722;BME280;6425;50.316;8.114;2023-04-02T15:15:01;995;;;4.7;78.7
12722;BME280;6425;50.316;8.114;2023-04-02T15:18:00;996;;;4.9;78.8
12722;BME280;6425;50.316;8.114;2023-04-02T15:21:02;996;;;5.1;78.5
12722;BME280;6425;50.316;8.114;2023-04-02T15:24:01;996;;;5;77.6
12722;BME280;6425;50.316;8.114;2023-04-02T15:27:02;996;;;4.9;77.8
12722;BME280;6425;50.316;8.114;2023-04-02T15:30:02;996;;;4.8;77.7
12722;BME280;6425;50.316;8.114;2023-04-02T15:33:18;996;;;4.7;78
12722;BME280;6425;50.316;8.114;2023-04-02T15:36:02;996;;;4.9;77.6
12722;BME280;6425;50.316;8.114;2023-04-02T15:39:01;996;;;4.9;78.2
12722;BME280;6425;50.316;8.114;2023-04-02T15:42:03;996;;;4.8;77.2
12722;BME280;6425;50.316;8.114;2023-04-02T15:45:32;996;;;4.6;76.6
12722;BME280;6425;50.316;8.114;2023-04-02T15:48:05;996;;;4.3;76.6
12722;BME280;6425;50.316;8.114;2023-04-02T15:51:01;996;;;4.6;76.5
12722;BME280;6425;50.316;8.114;2023-04-02T15:54:01;996;;;4.6;75.9
12722;BME280;6425;50.316;8.114;2023-04-02T15:57:02;996;;;4.6;76
12722;BME280;6425;50.316;8.114;2023-04-02T16:00:10;996;;;4.6;76.7
12722;BME280;6425;50.316;8.114;2023-04-02T16:03:17;996;;;4.6;76.2
12722;BME280;6425;50.316;8.114;2023-04-02T16:06:06;996;;;4.4;75.8
12722;BME280;6425;50.316;8.114;2023-04-02T16:09:02;996;;;4.4;74.3
12722;BME280;6425;50.316;8.114;2023-04-02T16:12:00;996;;;4.4;74.7
12722;BME280;6425;50.316;8.114;2023-04-02T16:15:02;996;;;4.4;74.4
12722;BME280;6425;50.316;8.114;2023-04-02T16:18:00;996;;;4.4;73.7
12722;BME280;6425;50.316;8.114;2023-04-02T16:21:00;996;;;4.3;73.5
12722;BME280;6425;50.316;8.114;2023-04-02T16:24:00;996;;;4.3;74.2
12722;BME280;6425;50.316;8.114;2023-04-02T16:27:04;997;;;4.3;74.5
12722;BME280;6425;50.316;8.114;2023-04-02T16:30:06;997;;;4.4;74.5
12722;BME280;6425;50.316;8.114;2023-04-02T16:33:04;997;;;4.5;73.7
12722;BME280;6425;50.316;8.114;2023-04-02T16:36:03;997;;;4.3;73.5
12722;BME280;6425;50.316;8.114;2023-04-02T16:39:00;997;;;4.3;73.8
12722;BME280;6425;50.316;8.114;2023-04-02T16:42:03;997;;;4.3;73.8
12722;BME280;6425;50.316;8.114;2023-04-02T16:45:02;997;;;4.1;72.9
12722;BME280;6425;50.316;8.114;2023-04-02T16:48:03;997;;;4.2;71.6
12722;BME280;6425;50.316;8.114;2023-04-02T16:51:02;997;;;4.2;71.8
12722;BME280;6425;50.316;8.114;2023-04-02T16:54:00;997;;;4;71.7
12722;BME280;6425;50.316;8.114;2023-04-02T16:57:06;997;;;4;72.4
12722;BME280;6425;50.316;8.114;2023-04-02T17:00:03;997;;;4;72.3
12722;BME280;6425;50.316;8.114;2023-04-02T17:03:01;997;;;4;72.6
12722;BME280;6425;50.316;8.114;2023-04-02T17:06:00;997;;;4.1;72.2
12722;BME280;6425;50.316;8.114;2023-04-02T17:09:00;997;;;4.2;72.1
12722;BME280;6425;50.316;8.114;2023-04-02T17:12:02;997;;;4.1;71.6
12722;BME280;6425;50.316;8.114;2023-04-02T17:15:00;997;;;4.2;71.5
12722;BME280;6425;50.316;8.114;2023-04-02T17:18:00;997;;;4.4;70.3
12722;BME280;6425;50.316;8.114;2023-04-02T17:21:01;997;;;4.2;70.7
12722;BME280;6425;50.316;8.114;2023-04-02T17:24:01;997;;;4.3;71
12722;BME280;6425;50.316;8.114;2023-04-02T17:27:02;997;;;4.3;70.9
12722;BME280;6425;50.316;8.114;2023-04-02T17:30:01;997;;;4.3;70.9
12722;BME280;6425;50.316;8.114;2023-04-02T17:33:00;997;;;4.2;71
12722;BME280;6425;50.316;8.114;2023-04-02T17:36:03;998;;;4.3;70.3
12722;BME280;6425;50.316;8.114;2023-04-02T17:39:02;997;;;4.3;71.2
12722;BME280;6425;50.316;8.114;2023-04-02T17:42:01;997;;;4.2;70.6
12722;BME280;6425;50.316;8.114;2023-04-02T17:45:02;998;;;4.2;71
12722;BME280;6425;50.316;8.114;2023-04-02T17:48:00;998;;;4.2;71.2
12722;BME280;6425;50.316;8.114;2023-04-02T17:51:02;998;;;4.3;71
12722;BME280;6425;50.316;8.114;2023-04-02T17:54:03;998;;;4.3;71.6
12722;BME280;6425;50.316;8.114;2023-04-02T17:57:18;998;;;4.3;71.7
12722;BME280;6425;50.316;8.114;2023-04-02T18:00:02;998;;;4.4;71.8
12722;BME280;6425;50.316;8.114;2023-04-02T18:03:05;998;;;4.3;70.9
12722;BME280;6425;50.316;8.114;2023-04-02T18:06:02;998;;;4.4;70.9
12722;BME280;6425;50.316;8.114;2023-04-02T18:09:08;998;;;4.3;70.5
12722;BME280;6425;50.316;8.114;2023-04-02T18:12:02;998;;;4.4;70.6